Terminal Aerodrome Forecast
Issued by NWS

Home | Current Version | Previous Version | Graphics & Text | Print | Product List | Glossary Off
Versions: 1 2 3 4 5 6 7 8 9 10 11 12 13

000
FTUS43 KICT 271100
TAFCNU
TAF
KCNU 271120Z 2712/2812 12007KT P6SM SCT250
     FM271700 17008KT P6SM SCT060 SCT250
     FM280200 15005KT P6SM BKN250=

USA.gov is the U.S. government's official web portal to all federal, state and local government web resources and services.